createdAt,value
2018-08-13T00:01:47.660Z,100756.41
2018-08-13T00:04:16.240Z,100753.22
2018-08-13T00:06:45.845Z,100750.70
2018-08-13T00:09:18.891Z,100761.84
2018-08-13T00:11:48.043Z,100762.50
2018-08-13T00:14:16.783Z,100752.07
2018-08-13T00:16:45.373Z,100739.39
2018-08-13T00:19:14.027Z,100736.03
2018-08-13T00:21:43.469Z,100730.52
2018-08-13T00:24:12.010Z,100731.83
2018-08-13T00:26:41.042Z,100730.98
2018-08-13T00:29:10.514Z,100722.33
2018-08-13T00:31:39.444Z,100714.78
2018-08-13T00:34:08.455Z,100706.95
2018-08-13T00:36:37.347Z,100706.80
2018-08-13T00:39:12.778Z,100707.78
2018-08-13T00:41:41.471Z,100713.98
2018-08-13T00:44:10.198Z,100703.48
2018-08-13T00:46:39.421Z,100704.81
2018-08-13T00:49:07.938Z,100705.31
2018-08-13T00:51:38.049Z,100702.66
2018-08-13T00:54:06.711Z,100697.16
2018-08-13T00:56:37.871Z,100697.03
2018-08-13T00:59:06.950Z,100697.51
2018-08-13T01:01:35.615Z,100706.83
2018-08-13T01:04:05.083Z,100708.31
2018-08-13T01:06:33.680Z,100703.78
2018-08-13T01:09:02.464Z,100698.95
2018-08-13T01:11:31.072Z,100695.30
2018-08-13T01:13:59.741Z,100697.62
2018-08-13T01:16:29.620Z,100695.11
2018-08-13T01:18:58.598Z,100696.75
2018-08-13T01:21:28.652Z,100699.23
2018-08-13T01:23:57.590Z,100699.08
2018-08-13T01:26:27.180Z,100695.07
2018-08-13T01:28:56.464Z,100688.48
2018-08-13T01:31:25.653Z,100688.58
2018-08-13T01:33:56.726Z,100690.41
2018-08-13T01:36:31.141Z,100691.62
2018-08-13T01:39:01.494Z,100695.30
2018-08-13T01:41:30.144Z,100694.28
2018-08-13T01:43:58.716Z,100698.78
2018-08-13T01:46:27.307Z,100696.41
2018-08-13T01:48:56.178Z,100687.43
2018-08-13T01:51:27.270Z,100688.20
2018-08-13T01:53:56.920Z,100682.98
2018-08-13T01:56:27.587Z,100676.08
2018-08-13T01:58:56.226Z,100674.37
2018-08-13T02:01:26.633Z,100662.94
2018-08-13T02:03:55.989Z,100663.13
2018-08-13T02:06:26.031Z,100649.99
2018-08-13T02:08:55.874Z,100638.83
2018-08-13T02:11:24.924Z,100625.50
2018-08-13T02:13:56.465Z,100627.03
2018-08-13T02:16:26.049Z,100622.66
2018-08-13T02:18:54.959Z,100616.53
2018-08-13T02:21:24.827Z,100620.88
2018-08-13T02:23:54.744Z,100621.98
2018-08-13T02:26:24.608Z,100622.42
2018-08-13T02:28:54.489Z,100624.28
2018-08-13T02:31:24.533Z,100623.93
2018-08-13T02:33:53.976Z,100621.19
2018-08-13T02:36:24.943Z,100625.81
2018-08-13T02:38:56.105Z,100622.41
2018-08-13T02:41:24.699Z,100622.21
2018-08-13T02:43:54.110Z,100611.52
2018-08-13T02:46:23.496Z,100609.14
2018-08-13T02:48:52.216Z,100596.34
2018-08-13T02:51:21.790Z,100598.56
2018-08-13T02:53:52.782Z,100597.08
2018-08-13T02:56:21.916Z,100595.16
2018-08-13T02:58:50.237Z,100603.27
2018-08-13T03:01:19.155Z,100602.09
2018-08-13T03:03:47.998Z,100601.27
2018-08-13T03:06:17.531Z,100609.76
2018-08-13T03:08:46.233Z,100612.02
2018-08-13T03:11:15.009Z,100615.86
2018-08-13T03:13:44.529Z,100612.42
2018-08-13T03:16:14.933Z,100617.39
2018-08-13T03:18:44.922Z,100624.20
2018-08-13T03:21:13.430Z,100628.10
2018-08-13T03:23:42.204Z,100631.13
2018-08-13T03:26:13.505Z,100627.02
2018-08-13T03:28:43.024Z,100625.27
2018-08-13T03:31:12.562Z,100618.06
2018-08-13T03:33:41.852Z,100619.59
2018-08-13T03:36:11.955Z,100623.19
2018-08-13T03:38:40.823Z,100617.59
2018-08-13T03:41:11.168Z,100616.30
2018-08-13T03:43:40.960Z,100614.73
2018-08-13T03:46:10.936Z,100609.72
2018-08-13T03:51:14.861Z,100621.02
2018-08-13T03:53:44.348Z,100610.32
2018-08-13T03:56:13.867Z,100609.75
2018-08-13T03:58:44.781Z,100606.04
2018-08-13T04:01:13.381Z,100603.42
2018-08-13T04:03:44.564Z,100598.48
2018-08-13T04:06:14.831Z,100596.88
2018-08-13T04:08:44.289Z,100583.92
2018-08-13T04:11:12.777Z,100578.44
2018-08-13T04:13:45.158Z,100568.03
2018-08-13T04:16:13.857Z,100562.27
2018-08-13T04:18:46.035Z,100553.70
2018-08-13T04:21:14.817Z,100556.48
2018-08-13T04:23:43.539Z,100562.71
2018-08-13T04:26:13.558Z,100564.05
2018-08-13T04:28:41.986Z,100575.28
2018-08-13T04:31:10.733Z,100582.24
2018-08-13T04:33:40.448Z,100574.96
2018-08-13T04:36:11.548Z,100578.56
2018-08-13T04:38:41.154Z,100588.08
2018-08-13T04:41:11.799Z,100585.52
2018-08-13T04:43:40.416Z,100583.06
2018-08-13T04:46:09.301Z,100601.69
2018-08-13T04:48:39.240Z,100602.52
2018-08-13T04:51:09.085Z,100593.66
2018-08-13T04:53:39.536Z,100593.47
2018-08-13T04:56:08.246Z,100595.42
2018-08-13T04:58:37.634Z,100591.48
2018-08-13T05:01:07.620Z,100586.35
2018-08-13T05:03:36.274Z,100587.22
2018-08-13T05:06:06.156Z,100583.34
2018-08-13T05:08:35.509Z,100585.80
2018-08-13T05:11:06.127Z,100586.35
2018-08-13T05:13:34.850Z,100591.16
2018-08-13T05:16:04.812Z,100582.59
2018-08-13T05:18:36.190Z,100582.75
2018-08-13T05:21:05.204Z,100588.16
2018-08-13T05:23:33.868Z,100598.30
2018-08-13T05:26:03.415Z,100596.57
2018-08-13T05:28:32.007Z,100598.17
2018-08-13T05:31:00.213Z,100590.50
2018-08-13T05:33:28.883Z,100585.76
2018-08-13T05:35:57.650Z,100600.98
2018-08-13T05:38:26.195Z,100599.15
2018-08-13T05:40:54.940Z,100589.80
2018-08-13T05:43:23.570Z,100592.02
2018-08-13T05:45:52.283Z,100598.45
2018-08-13T05:48:20.822Z,100594.91
2018-08-13T05:50:49.382Z,100594.70
2018-08-13T05:53:18.110Z,100591.43
2018-08-13T05:55:47.132Z,100589.20
2018-08-13T05:58:15.796Z,100597.27
2018-08-13T06:00:44.229Z,100600.13
2018-08-13T06:03:12.893Z,100598.05
2018-08-13T06:05:41.351Z,100599.72
2018-08-13T06:08:10.001Z,100600.77
2018-08-13T06:10:38.545Z,100610.76
2018-08-13T06:13:07.183Z,100603.40
2018-08-13T06:15:35.966Z,100602.31
2018-08-13T06:18:05.133Z,100598.98
2018-08-13T06:20:33.637Z,100603.60
2018-08-13T06:23:02.412Z,100605.25
2018-08-13T06:25:31.212Z,100611.41
2018-08-13T06:28:00.584Z,100607.27
2018-08-13T06:30:30.173Z,100618.72
2018-08-13T06:32:58.742Z,100621.86
2018-08-13T06:35:27.409Z,100620.71
2018-08-13T06:37:55.927Z,100620.11
2018-08-13T06:40:25.221Z,100619.80
2018-08-13T06:42:53.916Z,100620.08
2018-08-13T06:45:22.670Z,100627.77
2018-08-13T06:47:51.175Z,100633.52
2018-08-13T06:50:19.863Z,100641.45
2018-08-13T06:52:48.451Z,100633.92
2018-08-13T06:55:17.063Z,100631.71
2018-08-13T06:57:45.523Z,100629.83
2018-08-13T07:00:14.711Z,100631.51
2018-08-13T07:02:43.333Z,100640.67
2018-08-13T07:05:12.052Z,100645.73
2018-08-13T07:07:41.908Z,100644.45
2018-08-13T07:10:13.584Z,100634.69
2018-08-13T07:12:44.340Z,100629.61
2018-08-13T07:17:41.769Z,100585.84
2018-08-13T07:20:15.697Z,100637.41
2018-08-13T07:22:44.742Z,100636.42
2018-08-13T07:25:13.492Z,100638.62
2018-08-13T07:27:42.300Z,100630.84
2018-08-13T07:30:13.666Z,100641.54
2018-08-13T07:32:43.232Z,100635.35
2018-08-13T07:35:11.929Z,100637.59
2018-08-13T07:37:40.561Z,100636.64
2018-08-13T07:40:13.903Z,100626.30
2018-08-13T07:42:42.487Z,100627.22
2018-08-13T07:45:11.116Z,100621.78
2018-08-13T07:47:39.863Z,100624.92
2018-08-13T07:50:11.082Z,100622.53
2018-08-13T07:52:40.337Z,100617.80
2018-08-13T07:55:10.093Z,100616.80
2018-08-13T08:04:28.599Z,100611.50
2018-08-13T08:06:57.585Z,100611.53
2018-08-13T08:09:26.286Z,100605.33
2018-08-13T08:11:55.482Z,100616.19
2018-08-13T08:14:24.054Z,100622.86
2018-08-13T08:16:52.645Z,100617.53
2018-08-13T08:19:21.948Z,100623.06
2018-08-13T08:21:52.414Z,100632.97
2018-08-13T08:24:21.760Z,100631.22
2018-08-13T08:26:50.175Z,100635.63
2018-08-13T08:29:19.236Z,100632.62
2018-08-13T08:31:48.227Z,100634.30
2018-08-13T08:34:16.953Z,100633.27
2018-08-13T08:36:45.847Z,100631.98
2018-08-13T08:39:15.356Z,100640.25
2018-08-13T08:41:44.953Z,100643.58
2018-08-13T08:44:14.691Z,100642.24
2018-08-13T08:46:43.573Z,100644.00
2018-08-13T08:49:12.885Z,100639.72
2018-08-13T08:51:41.998Z,100634.86
2018-08-13T08:54:11.178Z,100641.58
2018-08-13T08:56:42.299Z,100640.09
2018-08-13T08:59:11.250Z,100638.63
2018-08-13T09:01:40.984Z,100646.67
2018-08-13T09:04:10.959Z,100645.62
2018-08-13T09:06:39.902Z,100636.80
2018-08-13T09:09:12.461Z,100635.63
2018-08-13T09:11:41.796Z,100632.27
2018-08-13T09:14:11.243Z,100643.30
2018-08-13T09:16:46.085Z,100647.66
2018-08-13T09:19:32.794Z,100649.02
2018-08-13T09:23:17.008Z,100649.20
2018-08-13T09:26:02.796Z,100638.31
2018-08-13T09:28:48.315Z,100640.66
2018-08-13T09:31:35.543Z,100635.47
2018-08-13T09:34:18.800Z,100639.41
2018-08-13T09:36:47.997Z,100634.80
2018-08-13T09:39:16.767Z,100637.49
2018-08-13T09:41:45.587Z,100646.67
2018-08-13T09:44:14.474Z,100641.16
2018-08-13T09:46:43.414Z,100641.02
2018-08-13T09:49:12.769Z,100641.61
2018-08-13T09:51:42.065Z,100639.68
2018-08-13T09:54:11.746Z,100640.21
2018-08-13T09:56:42.636Z,100637.03
2018-08-13T09:59:13.946Z,100627.98
2018-08-13T10:01:43.669Z,100631.37
2018-08-13T10:04:14.236Z,100634.90
2018-08-13T10:06:45.060Z,100647.39
2018-08-13T10:09:20.180Z,100657.41
2018-08-13T10:11:59.048Z,100661.73
2018-08-13T10:14:30.922Z,100656.22
2018-08-13T10:17:00.752Z,100651.00
2018-08-13T10:19:32.669Z,100645.03
2018-08-13T10:22:03.244Z,100649.76
2018-08-13T10:24:35.984Z,100637.36
2018-08-13T10:27:05.523Z,100634.23
2018-08-13T10:29:34.420Z,100629.95
2018-08-13T10:32:03.638Z,100628.73
2018-08-13T10:34:33.374Z,100625.42
2018-08-13T10:37:04.255Z,100622.02
2018-08-13T10:39:34.334Z,100617.92
2018-08-13T10:42:04.060Z,100617.25
2018-08-13T10:44:33.515Z,100620.43
2018-08-13T10:47:03.240Z,100619.41
2018-08-13T10:49:32.931Z,100618.42
2018-08-13T10:52:02.820Z,100610.75
2018-08-13T10:54:32.821Z,100615.59
2018-08-13T10:57:02.025Z,100617.08
2018-08-13T10:59:31.684Z,100609.55
2018-08-13T11:02:00.236Z,100611.23
2018-08-13T11:04:28.989Z,100608.06
2018-08-13T11:06:57.504Z,100617.92
2018-08-13T11:09:26.078Z,100614.23
2018-08-13T11:11:54.450Z,100611.40
2018-08-13T11:14:23.798Z,100615.56
2018-08-13T11:16:52.346Z,100616.30
2018-08-13T11:19:22.366Z,100617.16
2018-08-13T11:21:51.743Z,100622.58
2018-08-13T11:24:20.421Z,100612.21
2018-08-13T11:26:49.064Z,100609.41
2018-08-13T11:29:17.653Z,100600.44
2018-08-13T11:31:47.603Z,100594.36
2018-08-13T11:34:16.496Z,100586.02
2018-08-13T11:36:45.666Z,100584.52
2018-08-13T11:39:14.091Z,100591.70
2018-08-13T11:41:44.376Z,100585.48
2018-08-13T11:44:13.746Z,100586.80
2018-08-13T11:46:43.101Z,100581.42
2018-08-13T11:49:12.175Z,100588.12
2018-08-13T11:51:41.898Z,100587.73
2018-08-13T11:54:10.641Z,100581.99
2018-08-13T11:56:42.150Z,100581.66
2018-08-13T11:59:11.248Z,100565.55
2018-08-13T12:01:39.767Z,100565.41
2018-08-13T12:04:08.538Z,100578.99
2018-08-13T12:06:39.242Z,100593.02
2018-08-13T12:09:10.785Z,100607.13
2018-08-13T12:11:40.411Z,100609.55
2018-08-13T12:14:09.245Z,100617.19
2018-08-13T12:16:37.783Z,100612.49
2018-08-13T12:21:42.476Z,100640.10
2018-08-13T12:24:12.190Z,100643.07
2018-08-13T12:26:41.560Z,100653.92
2018-08-13T12:29:10.384Z,100664.41
2018-08-13T12:31:39.658Z,100676.58
2018-08-13T12:34:09.357Z,100677.70
2018-08-13T12:36:37.885Z,100688.53
2018-08-13T12:39:12.379Z,100680.77
2018-08-13T12:41:41.362Z,100685.95
2018-08-13T12:44:10.339Z,100673.25
2018-08-13T12:46:39.710Z,100670.48
2018-08-13T12:49:09.475Z,100667.11
2018-08-13T12:51:38.140Z,100669.88
2018-08-13T12:54:07.312Z,100667.82
2018-08-13T12:56:36.071Z,100662.27
2018-08-13T12:59:05.901Z,100661.56
2018-08-13T13:01:34.584Z,100655.39
2018-08-13T13:04:03.415Z,100647.16
2018-08-13T13:06:32.952Z,100647.87
2018-08-13T13:09:01.887Z,100648.66
2018-08-13T13:11:31.148Z,100639.52
2018-08-13T13:13:59.847Z,100640.43
2018-08-13T13:16:28.534Z,100634.74
2018-08-13T13:18:57.277Z,100639.22
2018-08-13T13:21:28.998Z,100647.57
2018-08-13T13:23:58.401Z,100649.92
2018-08-13T13:26:28.600Z,100662.28
2018-08-13T13:29:01.388Z,100671.91
2018-08-13T13:31:30.280Z,100669.05
2018-08-13T13:34:07.041Z,100666.33
2018-08-13T13:36:36.124Z,100660.19
2018-08-13T13:39:10.028Z,100659.07
2018-08-13T13:41:38.942Z,100664.33
2018-08-13T13:44:09.084Z,100659.88
2018-08-13T13:46:40.840Z,100667.20
2018-08-13T13:49:09.595Z,100660.00
2018-08-13T13:51:39.760Z,100654.55
2018-08-13T13:54:08.952Z,100660.51
2018-08-13T13:56:37.901Z,100652.20
2018-08-13T13:59:06.745Z,100654.82
2018-08-13T14:01:35.624Z,100658.94
2018-08-13T14:04:05.388Z,100663.13
2018-08-13T14:06:34.104Z,100659.42
2018-08-13T14:09:04.503Z,100662.81
2018-08-13T14:11:33.432Z,100672.06
2018-08-13T14:14:02.867Z,100667.91
2018-08-13T14:16:32.179Z,100679.38
2018-08-13T14:19:01.937Z,100664.05
2018-08-13T14:21:31.408Z,100674.22
2018-08-13T14:24:05.367Z,100676.05
2018-08-13T14:26:34.503Z,100670.77
2018-08-13T14:29:04.184Z,100669.91
2018-08-13T14:31:33.675Z,100662.38
2018-08-13T14:34:03.679Z,100658.72
2018-08-13T14:36:34.444Z,100664.20
2018-08-13T14:39:05.369Z,100660.34
2018-08-13T14:41:42.485Z,100660.13
2018-08-13T14:44:12.048Z,100654.59
2018-08-13T14:46:40.352Z,100667.19
2018-08-13T14:49:10.469Z,100669.89
2018-08-13T14:51:42.418Z,100666.40
2018-08-13T14:54:11.176Z,100663.83
2018-08-13T14:56:41.111Z,100657.20
2018-08-13T15:01:42.993Z,100656.45
2018-08-13T15:04:16.168Z,100649.32
2018-08-13T15:06:53.369Z,100653.52
2018-08-13T15:09:24.584Z,100652.82
2018-08-13T15:11:54.766Z,100644.84
2018-08-13T15:14:25.473Z,100652.02
2018-08-13T15:16:56.140Z,100658.09
2018-08-13T15:19:27.510Z,100657.86
2018-08-13T15:21:59.705Z,100655.46
2018-08-13T15:24:31.514Z,100660.55
2018-08-13T15:27:04.095Z,100663.39
2018-08-13T15:29:37.183Z,100670.35
2018-08-13T15:32:08.340Z,100661.36
2018-08-13T15:34:38.321Z,100654.33
2018-08-13T15:37:11.130Z,100663.87
2018-08-13T15:39:44.794Z,100662.02
2018-08-13T15:42:15.898Z,100675.04
2018-08-13T15:44:45.944Z,100679.53
2018-08-13T15:47:16.007Z,100683.72
2018-08-13T15:49:48.170Z,100691.03
2018-08-13T15:52:17.623Z,100701.42
2018-08-13T15:54:46.322Z,100701.20
2018-08-13T15:57:15.486Z,100700.69
2018-08-13T15:59:47.591Z,100693.61
2018-08-13T16:02:20.946Z,100697.18
2018-08-13T16:04:51.021Z,100696.48
2018-08-13T16:07:21.669Z,100709.98
2018-08-13T16:09:59.517Z,100710.64
2018-08-13T16:12:33.273Z,100721.47
2018-08-13T16:15:06.285Z,100725.97
2018-08-13T16:17:40.684Z,100734.75
2018-08-13T16:20:20.500Z,100722.15
2018-08-13T16:22:56.989Z,100728.77
2018-08-13T16:25:26.886Z,100720.17
2018-08-13T16:27:59.172Z,100722.19
2018-08-13T16:30:32.092Z,100726.25
2018-08-13T16:33:03.385Z,100727.43
2018-08-13T16:35:37.913Z,100728.66
2018-08-13T16:38:12.779Z,100726.77
2018-08-13T16:40:42.054Z,100732.49
2018-08-13T16:43:13.223Z,100728.31
2018-08-13T16:45:46.762Z,100734.34
2018-08-13T16:48:18.690Z,100732.31
2018-08-13T16:50:48.555Z,100734.58
2018-08-13T16:53:20.584Z,100729.95
2018-08-13T16:55:51.183Z,100735.69
2018-08-13T16:58:22.467Z,100736.20
2018-08-13T17:00:53.296Z,100734.08
2018-08-13T17:03:24.344Z,100733.96
2018-08-13T17:05:55.829Z,100739.68
2018-08-13T17:08:25.196Z,100738.34
2018-08-13T17:10:56.881Z,100742.19
2018-08-13T17:13:28.789Z,100739.45
2018-08-13T17:15:59.138Z,100740.39
2018-08-13T17:18:31.797Z,100743.11
2018-08-13T17:21:02.001Z,100746.57
2018-08-13T17:23:32.150Z,100746.52
2018-08-13T17:26:01.591Z,100745.05
2018-08-13T17:28:30.538Z,100743.31
2018-08-13T17:30:59.088Z,100745.75
2018-08-13T17:33:28.171Z,100743.66
2018-08-13T17:35:58.813Z,100750.79
2018-08-13T17:38:27.584Z,100759.11
2018-08-13T17:40:56.511Z,100756.04
2018-08-13T17:43:28.573Z,100759.20
2018-08-13T17:45:58.222Z,100768.69
2018-08-13T17:48:28.284Z,100769.30
2018-08-13T17:50:58.175Z,100765.63
2018-08-13T17:53:28.081Z,100771.97
2018-08-13T17:55:57.095Z,100781.69
2018-08-13T17:58:26.086Z,100777.40
2018-08-13T18:00:55.558Z,100783.58
2018-08-13T18:03:26.081Z,100784.05
2018-08-13T18:05:54.820Z,100786.39
2018-08-13T18:08:25.097Z,100788.28
2018-08-13T18:10:54.538Z,100794.95
2018-08-13T18:13:23.890Z,100790.70
2018-08-13T18:15:53.587Z,100792.28
2018-08-13T18:18:22.977Z,100798.36
2018-08-13T18:20:52.864Z,100805.28
2018-08-13T18:23:22.129Z,100803.78
2018-08-13T18:25:57.985Z,100808.78
2018-08-13T18:28:26.944Z,100815.48
2018-08-13T18:30:55.480Z,100813.74
2018-08-13T18:33:26.972Z,100812.08
2018-08-13T18:35:55.707Z,100814.92
2018-08-13T18:38:24.306Z,100815.55
2018-08-13T18:40:53.274Z,100816.87
2018-08-13T18:43:23.962Z,100817.82
2018-08-13T18:45:53.234Z,100820.45
2018-08-13T18:48:22.581Z,100825.06
2018-08-13T18:50:51.868Z,100820.16
2018-08-13T18:53:21.965Z,100829.50
2018-08-13T18:55:50.603Z,100829.73
2018-08-13T18:58:19.965Z,100823.34
2018-08-13T19:00:53.339Z,100825.50
2018-08-13T19:03:24.466Z,100828.38
2018-08-13T19:05:53.247Z,100834.69
2018-08-13T19:08:25.560Z,100839.14
2018-08-13T19:10:54.332Z,100840.58
2018-08-13T19:13:24.547Z,100833.66
2018-08-13T19:15:53.424Z,100831.47
2018-08-13T19:18:22.593Z,100829.44
2018-08-13T19:20:51.092Z,100832.02
2018-08-13T19:23:20.548Z,100837.13
2018-08-13T19:25:49.237Z,100836.73
2018-08-13T19:28:18.221Z,100842.44
2018-08-13T19:30:47.948Z,100844.19
2018-08-13T19:33:17.635Z,100846.33
2018-08-13T19:35:46.377Z,100837.31
2018-08-13T19:38:15.062Z,100840.30
2018-08-13T19:40:44.534Z,100845.14
2018-08-13T19:43:15.699Z,100845.28
2018-08-13T19:45:44.346Z,100849.27
2018-08-13T19:48:12.854Z,100852.75
2018-08-13T19:50:47.936Z,100850.16
2018-08-13T19:53:17.539Z,100853.31
2018-08-13T19:55:46.529Z,100858.95
2018-08-13T19:58:15.392Z,100855.75
2018-08-13T20:00:44.350Z,100861.20
2018-08-13T20:03:14.334Z,100864.39
2018-08-13T20:05:43.322Z,100865.43
2018-08-13T20:08:12.799Z,100864.66
2018-08-13T20:10:40.953Z,100871.64
2018-08-13T20:13:09.925Z,100876.17
2018-08-13T20:15:39.367Z,100877.32
2018-08-13T20:18:08.953Z,100881.58
2018-08-13T20:20:37.849Z,100881.41
2018-08-13T20:23:07.673Z,100885.29
2018-08-13T20:25:36.529Z,100886.42
2018-08-13T20:28:06.159Z,100888.38
2018-08-13T20:30:34.833Z,100889.02
2018-08-13T20:33:04.078Z,100893.33
2018-08-13T20:35:33.113Z,100888.94
2018-08-13T20:38:01.662Z,100893.52
2018-08-13T20:40:31.096Z,100890.41
2018-08-13T20:43:00.034Z,100896.94
2018-08-13T20:45:28.784Z,100892.03
2018-08-13T20:47:58.102Z,100895.61
2018-08-13T20:50:28.092Z,100890.16
2018-08-13T20:52:58.063Z,100893.00
2018-08-13T20:55:30.529Z,100892.37
2018-08-13T20:57:59.308Z,100900.95
2018-08-13T21:00:29.931Z,100893.13
2018-08-13T21:02:59.194Z,100894.33
2018-08-13T21:05:28.020Z,100907.02
2018-08-13T21:07:56.910Z,100910.09
2018-08-13T21:10:26.976Z,100912.75
2018-08-13T21:12:56.255Z,100911.29
2018-08-13T21:15:26.108Z,100919.38
2018-08-13T21:17:55.945Z,100915.73
2018-08-13T21:20:27.845Z,100919.78
2018-08-13T21:22:58.390Z,100914.11
2018-08-13T21:25:27.272Z,100909.88
2018-08-13T21:27:56.060Z,100914.38
2018-08-13T21:30:25.795Z,100913.29
2018-08-13T21:32:56.274Z,100911.09
2018-08-13T21:35:25.531Z,100912.55
2018-08-13T21:37:54.231Z,100917.08
2018-08-13T21:40:23.713Z,100919.18
2018-08-13T21:42:52.745Z,100914.01
2018-08-13T21:45:22.150Z,100910.72
2018-08-13T21:47:51.759Z,100915.09
2018-08-13T21:50:21.608Z,100913.70
2018-08-13T21:52:51.195Z,100909.67
2018-08-13T21:55:20.992Z,100920.98
2018-08-13T21:57:50.639Z,100930.58
2018-08-13T22:00:28.387Z,100932.00
2018-08-13T22:02:59.774Z,100938.64
2018-08-13T22:05:28.585Z,100945.24
2018-08-13T22:07:58.248Z,100941.23
2018-08-13T22:10:28.521Z,100943.69
2018-08-13T22:12:57.506Z,100947.83
2018-08-13T22:15:29.773Z,100944.48
2018-08-13T22:18:00.674Z,100946.84
2018-08-13T22:20:30.518Z,100941.20
2018-08-13T22:23:03.138Z,100944.25
2018-08-13T22:25:36.302Z,100951.86
2018-08-13T22:28:06.940Z,100950.02
2018-08-13T22:30:36.188Z,100955.69
2018-08-13T22:33:06.956Z,100953.30
2018-08-13T22:35:36.706Z,100959.20
2018-08-13T22:38:06.390Z,100957.56
2018-08-13T22:40:35.625Z,100963.44
2018-08-13T22:43:04.644Z,100970.06
2018-08-13T22:45:33.277Z,100971.26
2018-08-13T22:48:02.583Z,100964.73
2018-08-13T22:50:32.380Z,100970.04
2018-08-13T22:53:01.040Z,100975.81
2018-08-13T22:55:30.549Z,100977.34
2018-08-13T22:57:59.309Z,100980.95
2018-08-13T23:00:29.461Z,100979.73
2018-08-13T23:02:58.465Z,100978.06
2018-08-13T23:05:27.939Z,100980.09
2018-08-13T23:07:57.345Z,100976.34
2018-08-13T23:10:26.153Z,100980.33
2018-08-13T23:12:56.629Z,100976.45
2018-08-13T23:15:26.974Z,100983.38
2018-08-13T23:17:57.170Z,100992.79
2018-08-13T23:20:29.723Z,100983.66
2018-08-13T23:23:02.684Z,100988.55
2018-08-13T23:25:32.784Z,100988.97
2018-08-13T23:28:04.071Z,100991.70
2018-08-13T23:30:33.643Z,100986.69
2018-08-13T23:33:02.340Z,100997.53
2018-08-13T23:35:34.511Z,100995.88
2018-08-13T23:38:03.243Z,100997.59
2018-08-13T23:40:33.159Z,100999.09
2018-08-13T23:43:02.087Z,101002.64
2018-08-13T23:45:31.860Z,100999.76
2018-08-13T23:48:02.642Z,101010.14
2018-08-13T23:50:31.196Z,101012.69
2018-08-13T23:53:01.488Z,101012.69
2018-08-13T23:55:37.178Z,101007.19
2018-08-13T23:58:10.288Z,101012.56
